sensor_id;sensor_type;location;lat;lon;timestamp;temperature;humidity
47861;HTU21D;33620;52.340;5.984;2022-09-09T00:02:19;17.74;81.49
47861;HTU21D;33620;52.340;5.984;2022-09-09T00:10:05;17.70;82.32
47861;HTU21D;33620;52.340;5.984;2022-09-09T00:15:19;17.72;82.12
47861;HTU21D;33620;52.340;5.984;2022-09-09T00:17:56;17.68;81.81
47861;HTU21D;33620;52.340;5.984;2022-09-09T00:20:33;17.67;82.29
47861;HTU21D;33620;52.340;5.984;2022-09-09T00:25:41;17.69;82.18
47861;HTU21D;33620;52.340;5.984;2022-09-09T00:28:20;17.69;82.40
47861;HTU21D;33620;52.340;5.984;2022-09-09T00:30:47;17.69;82.28
47861;HTU21D;33620;52.340;5.984;2022-09-09T00:33:15;17.62;82.08
47861;HTU21D;33620;52.340;5.984;2022-09-09T00:35:54;17.58;82.12
47861;HTU21D;33620;52.340;5.984;2022-09-09T00:39:25;17.59;82.49
47861;HTU21D;33620;52.340;5.984;2022-09-09T00:41:36;17.60;82.33
47861;HTU21D;33620;52.340;5.984;2022-09-09T00:44:25;17.60;82.12
47861;HTU21D;33620;52.340;5.984;2022-09-09T00:52:39;17.59;82.39
47861;HTU21D;33620;52.340;5.984;2022-09-09T00:55:21;17.59;82.23
47861;HTU21D;33620;52.340;5.984;2022-09-09T00:57:52;17.59;82.03
47861;HTU21D;33620;52.340;5.984;2022-09-09T01:00:30;17.58;82.04
47861;HTU21D;33620;52.340;5.984;2022-09-09T01:06:16;17.55;82.02
47861;HTU21D;33620;52.340;5.984;2022-09-09T01:11:21;17.52;82.36
47861;HTU21D;33620;52.340;5.984;2022-09-09T01:13:47;17.48;82.68
47861;HTU21D;33620;52.340;5.984;2022-09-09T01:16:15;17.47;82.78
47861;HTU21D;33620;52.340;5.984;2022-09-09T01:18:45;17.45;82.69
47861;HTU21D;33620;52.340;5.984;2022-09-09T01:24:19;17.46;82.90
47861;HTU21D;33620;52.340;5.984;2022-09-09T01:26:46;17.43;82.53
47861;HTU21D;33620;52.340;5.984;2022-09-09T01:29:15;17.40;82.76
47861;HTU21D;33620;52.340;5.984;2022-09-09T01:31:53;17.39;82.93
47861;HTU21D;33620;52.340;5.984;2022-09-09T01:34:20;17.38;82.69
47861;HTU21D;33620;52.340;5.984;2022-09-09T01:36:53;17.34;83.03
47861;HTU21D;33620;52.340;5.984;2022-09-09T01:39:20;17.35;83.11
47861;HTU21D;33620;52.340;5.984;2022-09-09T01:41:46;17.33;82.96
47861;HTU21D;33620;52.340;5.984;2022-09-09T01:44:12;17.31;83.06
47861;HTU21D;33620;52.340;5.984;2022-09-09T01:46:37;17.31;83.06
47861;HTU21D;33620;52.340;5.984;2022-09-09T01:49:03;17.30;83.26
47861;HTU21D;33620;52.340;5.984;2022-09-09T01:51:30;17.30;83.07
47861;HTU21D;33620;52.340;5.984;2022-09-09T01:53:55;17.29;83.19
47861;HTU21D;33620;52.340;5.984;2022-09-09T02:02:18;17.29;83.13
47861;HTU21D;33620;52.340;5.984;2022-09-09T02:04:48;17.26;82.90
47861;HTU21D;33620;52.340;5.984;2022-09-09T02:10:15;17.24;82.71
47861;HTU21D;33620;52.340;5.984;2022-09-09T02:12:45;17.22;82.38
47861;HTU21D;33620;52.340;5.984;2022-09-09T02:15:28;17.18;82.63
47861;HTU21D;33620;52.340;5.984;2022-09-09T02:17:57;17.15;82.84
47861;HTU21D;33620;52.340;5.984;2022-09-09T02:20:23;17.10;82.32
47861;HTU21D;33620;52.340;5.984;2022-09-09T02:22:52;17.05;82.58
47861;HTU21D;33620;52.340;5.984;2022-09-09T02:25:21;17.04;82.89
47861;HTU21D;33620;52.340;5.984;2022-09-09T02:27:50;17.03;82.78
47861;HTU21D;33620;52.340;5.984;2022-09-09T02:30:16;17.02;82.74
47861;HTU21D;33620;52.340;5.984;2022-09-09T02:32:43;17.03;82.78
47861;HTU21D;33620;52.340;5.984;2022-09-09T02:35:14;17.01;82.58
47861;HTU21D;33620;52.340;5.984;2022-09-09T02:37:42;16.96;82.73
47861;HTU21D;33620;52.340;5.984;2022-09-09T02:40:12;16.95;82.54
47861;HTU21D;33620;52.340;5.984;2022-09-09T02:42:42;16.93;82.43
47861;HTU21D;33620;52.340;5.984;2022-09-09T02:45:10;16.89;82.34
47861;HTU21D;33620;52.340;5.984;2022-09-09T02:48:03;16.86;82.21
47861;HTU21D;33620;52.340;5.984;2022-09-09T02:50:59;16.82;82.38
47861;HTU21D;33620;52.340;5.984;2022-09-09T02:53:58;16.81;82.45
47861;HTU21D;33620;52.340;5.984;2022-09-09T02:56:27;16.79;82.39
47861;HTU21D;33620;52.340;5.984;2022-09-09T02:58:55;16.79;82.39
47861;HTU21D;33620;52.340;5.984;2022-09-09T03:01:21;16.78;82.07
47861;HTU21D;33620;52.340;5.984;2022-09-09T03:03:46;16.75;82.29
47861;HTU21D;33620;52.340;5.984;2022-09-09T03:06:12;16.72;82.35
47861;HTU21D;33620;52.340;5.984;2022-09-09T03:08:37;16.71;82.14
47861;HTU21D;33620;52.340;5.984;2022-09-09T03:11:03;16.69;82.07
47861;HTU21D;33620;52.340;5.984;2022-09-09T03:13:29;16.66;81.86
47861;HTU21D;33620;52.340;5.984;2022-09-09T03:15:54;16.64;81.75
47861;HTU21D;33620;52.340;5.984;2022-09-09T03:18:20;16.63;81.84
47861;HTU21D;33620;52.340;5.984;2022-09-09T03:20:46;16.62;81.87
47861;HTU21D;33620;52.340;5.984;2022-09-09T03:23:14;16.59;81.68
47861;HTU21D;33620;52.340;5.984;2022-09-09T03:25:39;16.58;81.78
47861;HTU21D;33620;52.340;5.984;2022-09-09T03:28:05;16.50;82.01
47861;HTU21D;33620;52.340;5.984;2022-09-09T03:30:30;16.47;82.20
47861;HTU21D;33620;52.340;5.984;2022-09-09T03:32:55;16.44;82.30
47861;HTU21D;33620;52.340;5.984;2022-09-09T03:35:21;16.45;82.29
47861;HTU21D;33620;52.340;5.984;2022-09-09T03:37:47;16.47;82.07
47861;HTU21D;33620;52.340;5.984;2022-09-09T03:40:12;16.48;82.00
47861;HTU21D;33620;52.340;5.984;2022-09-09T03:42:39;16.46;81.91
47861;HTU21D;33620;52.340;5.984;2022-09-09T03:45:06;16.43;81.78
47861;HTU21D;33620;52.340;5.984;2022-09-09T03:47:32;16.41;82.03
47861;HTU21D;33620;52.340;5.984;2022-09-09T03:49:58;16.39;82.08
47861;HTU21D;33620;52.340;5.984;2022-09-09T03:52:23;16.36;82.10
47861;HTU21D;33620;52.340;5.984;2022-09-09T03:54:51;16.32;82.07
47861;HTU21D;33620;52.340;5.984;2022-09-09T03:57:18;16.31;82.15
47861;HTU21D;33620;52.340;5.984;2022-09-09T03:59:43;16.31;81.95
47861;HTU21D;33620;52.340;5.984;2022-09-09T04:02:09;16.31;81.79
47861;HTU21D;33620;52.340;5.984;2022-09-09T04:04:35;16.28;81.86
47861;HTU21D;33620;52.340;5.984;2022-09-09T04:07:00;16.26;82.02
47861;HTU21D;33620;52.340;5.984;2022-09-09T04:09:26;16.21;82.18
47861;HTU21D;33620;52.340;5.984;2022-09-09T04:11:51;16.18;82.49
47861;HTU21D;33620;52.340;5.984;2022-09-09T04:14:18;16.13;82.71
47861;HTU21D;33620;52.340;5.984;2022-09-09T04:16:44;16.08;83.03
47861;HTU21D;33620;52.340;5.984;2022-09-09T04:19:10;16.05;83.20
47861;HTU21D;33620;52.340;5.984;2022-09-09T04:21:38;16.03;83.51
47861;HTU21D;33620;52.340;5.984;2022-09-09T04:24:05;16.03;83.20
47861;HTU21D;33620;52.340;5.984;2022-09-09T04:26:31;16.03;83.26
47861;HTU21D;33620;52.340;5.984;2022-09-09T04:28:56;16.02;83.23
47861;HTU21D;33620;52.340;5.984;2022-09-09T04:31:22;16.01;83.14
47861;HTU21D;33620;52.340;5.984;2022-09-09T04:33:49;16.01;83.47
47861;HTU21D;33620;52.340;5.984;2022-09-09T04:36:15;15.99;83.36
47861;HTU21D;33620;52.340;5.984;2022-09-09T04:38:40;16.01;83.33
47861;HTU21D;33620;52.340;5.984;2022-09-09T04:41:06;16.04;83.26
47861;HTU21D;33620;52.340;5.984;2022-09-09T04:43:32;16.05;83.23
47861;HTU21D;33620;52.340;5.984;2022-09-09T04:45:57;16.07;83.29
47861;HTU21D;33620;52.340;5.984;2022-09-09T04:48:24;16.08;83.14
47861;HTU21D;33620;52.340;5.984;2022-09-09T04:51:11;16.08;83.28
47861;HTU21D;33620;52.340;5.984;2022-09-09T04:53:37;16.07;83.26
47861;HTU21D;33620;52.340;5.984;2022-09-09T04:56:11;16.06;83.20
47861;HTU21D;33620;52.340;5.984;2022-09-09T04:58:37;16.08;83.26
47861;HTU21D;33620;52.340;5.984;2022-09-09T05:03:29;16.08;83.07
47861;HTU21D;33620;52.340;5.984;2022-09-09T05:06:02;16.07;83.10
47861;HTU21D;33620;52.340;5.984;2022-09-09T05:08:29;16.10;83.20
47861;HTU21D;33620;52.340;5.984;2022-09-09T05:10:54;16.10;83.14
47861;HTU21D;33620;52.340;5.984;2022-09-09T05:13:20;16.10;83.31
47861;HTU21D;33620;52.340;5.984;2022-09-09T05:15:53;16.10;83.43
47861;HTU21D;33620;52.340;5.984;2022-09-09T05:18:18;16.10;83.42
47861;HTU21D;33620;52.340;5.984;2022-09-09T05:20:44;16.10;83.48
47861;HTU21D;33620;52.340;5.984;2022-09-09T05:23:09;16.10;83.38
47861;HTU21D;33620;52.340;5.984;2022-09-09T05:25:38;16.07;83.45
47861;HTU21D;33620;52.340;5.984;2022-09-09T05:28:05;16.08;83.71
47861;HTU21D;33620;52.340;5.984;2022-09-09T05:30:32;16.07;83.84
47861;HTU21D;33620;52.340;5.984;2022-09-09T05:32:58;16.05;83.58
47861;HTU21D;33620;52.340;5.984;2022-09-09T05:35:24;16.04;83.71
47861;HTU21D;33620;52.340;5.984;2022-09-09T05:37:49;16.02;83.71
47861;HTU21D;33620;52.340;5.984;2022-09-09T05:40:15;16.00;83.71
47861;HTU21D;33620;52.340;5.984;2022-09-09T05:42:40;15.97;83.99
47861;HTU21D;33620;52.340;5.984;2022-09-09T05:45:07;15.97;83.81
47861;HTU21D;33620;52.340;5.984;2022-09-09T05:47:33;15.97;83.87
47861;HTU21D;33620;52.340;5.984;2022-09-09T05:49:58;15.92;84.00
47861;HTU21D;33620;52.340;5.984;2022-09-09T05:52:24;15.90;83.99
47861;HTU21D;33620;52.340;5.984;2022-09-09T05:54:51;15.92;84.30
47861;HTU21D;33620;52.340;5.984;2022-09-09T05:57:17;15.93;84.32
47861;HTU21D;33620;52.340;5.984;2022-09-09T05:59:44;15.93;84.48
47861;HTU21D;33620;52.340;5.984;2022-09-09T06:02:10;15.96;84.51
47861;HTU21D;33620;52.340;5.984;2022-09-09T06:04:35;15.96;84.58
47861;HTU21D;33620;52.340;5.984;2022-09-09T06:07:00;15.98;84.67
47861;HTU21D;33620;52.340;5.984;2022-09-09T06:09:26;15.97;84.68
47861;HTU21D;33620;52.340;5.984;2022-09-09T06:11:51;15.97;84.84
47861;HTU21D;33620;52.340;5.984;2022-09-09T06:14:17;15.99;84.76
47861;HTU21D;33620;52.340;5.984;2022-09-09T06:16:43;16.00;84.84
47861;HTU21D;33620;52.340;5.984;2022-09-09T06:19:09;16.00;84.90
47861;HTU21D;33620;52.340;5.984;2022-09-09T06:21:36;16.01;85.04
47861;HTU21D;33620;52.340;5.984;2022-09-09T06:24:03;16.06;85.29
47861;HTU21D;33620;52.340;5.984;2022-09-09T06:26:33;16.10;85.41
47861;HTU21D;33620;52.340;5.984;2022-09-09T06:29:00;16.14;85.35
47861;HTU21D;33620;52.340;5.984;2022-09-09T06:31:27;16.18;85.36
47861;HTU21D;33620;52.340;5.984;2022-09-09T06:33:56;16.20;85.51
47861;HTU21D;33620;52.340;5.984;2022-09-09T06:36:32;16.24;85.50
47861;HTU21D;33620;52.340;5.984;2022-09-09T06:38:58;16.24;85.16
47861;HTU21D;33620;52.340;5.984;2022-09-09T06:41:26;16.22;85.47
47861;HTU21D;33620;52.340;5.984;2022-09-09T06:43:52;16.25;85.54
47861;HTU21D;33620;52.340;5.984;2022-09-09T06:48:45;16.26;85.90
47861;HTU21D;33620;52.340;5.984;2022-09-09T06:51:12;16.28;85.95
47861;HTU21D;33620;52.340;5.984;2022-09-09T06:53:39;16.31;86.02
47861;HTU21D;33620;52.340;5.984;2022-09-09T06:58:39;16.35;86.26
47861;HTU21D;33620;52.340;5.984;2022-09-09T07:01:20;16.39;86.33
47861;HTU21D;33620;52.340;5.984;2022-09-09T07:03:48;16.41;86.46
47861;HTU21D;33620;52.340;5.984;2022-09-09T07:06:23;16.44;86.37
47861;HTU21D;33620;52.340;5.984;2022-09-09T07:09:12;16.48;86.32
47861;HTU21D;33620;52.340;5.984;2022-09-09T07:14:04;16.52;86.68
47861;HTU21D;33620;52.340;5.984;2022-09-09T07:16:30;16.57;86.48
47861;HTU21D;33620;52.340;5.984;2022-09-09T07:18:57;16.58;86.74
47861;HTU21D;33620;52.340;5.984;2022-09-09T07:21:23;16.63;86.97
47861;HTU21D;33620;52.340;5.984;2022-09-09T07:23:49;16.67;87.02
47861;HTU21D;33620;52.340;5.984;2022-09-09T07:26:20;16.76;87.12
47861;HTU21D;33620;52.340;5.984;2022-09-09T07:28:46;16.86;87.36
47861;HTU21D;33620;52.340;5.984;2022-09-09T07:31:17;16.98;87.55
47861;HTU21D;33620;52.340;5.984;2022-09-09T07:33:43;17.07;87.42
47861;HTU21D;33620;52.340;5.984;2022-09-09T07:36:20;17.14;87.12
47861;HTU21D;33620;52.340;5.984;2022-09-09T07:38:55;17.22;86.94
47861;HTU21D;33620;52.340;5.984;2022-09-09T07:41:45;17.29;86.83
47861;HTU21D;33620;52.340;5.984;2022-09-09T07:44:17;17.36;86.86
47861;HTU21D;33620;52.340;5.984;2022-09-09T07:46:43;17.41;86.61
47861;HTU21D;33620;52.340;5.984;2022-09-09T07:49:10;17.43;85.58
47861;HTU21D;33620;52.340;5.984;2022-09-09T07:51:38;17.47;85.51
47861;HTU21D;33620;52.340;5.984;2022-09-09T07:54:07;17.53;85.58
47861;HTU21D;33620;52.340;5.984;2022-09-09T07:56:34;17.55;85.60
47861;HTU21D;33620;52.340;5.984;2022-09-09T07:59:00;17.59;85.22
47861;HTU21D;33620;52.340;5.984;2022-09-09T08:01:27;17.65;85.22
47861;HTU21D;33620;52.340;5.984;2022-09-09T08:03:57;17.72;85.10
47861;HTU21D;33620;52.340;5.984;2022-09-09T08:06:32;17.75;84.73
47861;HTU21D;33620;52.340;5.984;2022-09-09T08:08:58;17.76;84.58
47861;HTU21D;33620;52.340;5.984;2022-09-09T08:11:25;17.81;84.58
47861;HTU21D;33620;52.340;5.984;2022-09-09T08:13:52;17.85;84.76
47861;HTU21D;33620;52.340;5.984;2022-09-09T08:16:26;17.88;84.47
47861;HTU21D;33620;52.340;5.984;2022-09-09T08:18:52;17.89;83.56
47861;HTU21D;33620;52.340;5.984;2022-09-09T08:21:21;17.91;83.39
47861;HTU21D;33620;52.340;5.984;2022-09-09T08:23:47;17.95;82.51
47861;HTU21D;33620;52.340;5.984;2022-09-09T08:26:15;17.95;82.96
47861;HTU21D;33620;52.340;5.984;2022-09-09T08:28:41;17.98;83.02
47861;HTU21D;33620;52.340;5.984;2022-09-09T08:31:16;17.95;82.63
47861;HTU21D;33620;52.340;5.984;2022-09-09T08:33:42;17.97;82.52
47861;HTU21D;33620;52.340;5.984;2022-09-09T08:36:12;17.97;82.46
47861;HTU21D;33620;52.340;5.984;2022-09-09T08:38:38;18.03;82.94
47861;HTU21D;33620;52.340;5.984;2022-09-09T08:41:38;18.05;82.82
47861;HTU21D;33620;52.340;5.984;2022-09-09T08:44:26;18.12;82.25
47861;HTU21D;33620;52.340;5.984;2022-09-09T08:47:02;18.17;81.84
47861;HTU21D;33620;52.340;5.984;2022-09-09T08:52:17;18.24;81.89
47861;HTU21D;33620;52.340;5.984;2022-09-09T08:54:44;18.25;81.81
47861;HTU21D;33620;52.340;5.984;2022-09-09T08:57:19;18.27;81.20
47861;HTU21D;33620;52.340;5.984;2022-09-09T08:59:46;18.30;80.73
47861;HTU21D;33620;52.340;5.984;2022-09-09T09:07:36;18.29;80.40
47861;HTU21D;33620;52.340;5.984;2022-09-09T09:10:21;18.28;80.11
47861;HTU21D;33620;52.340;5.984;2022-09-09T09:12:50;18.22;80.20
47861;HTU21D;33620;52.340;5.984;2022-09-09T09:15:23;18.21;80.55
47861;HTU21D;33620;52.340;5.984;2022-09-09T09:17:50;18.22;80.22
47861;HTU21D;33620;52.340;5.984;2022-09-09T09:20:18;18.20;80.44
47861;HTU21D;33620;52.340;5.984;2022-09-09T09:22:51;18.18;80.07
47861;HTU21D;33620;52.340;5.984;2022-09-09T09:25:27;18.19;80.46
47861;HTU21D;33620;52.340;5.984;2022-09-09T09:28:13;18.20;80.37
47861;HTU21D;33620;52.340;5.984;2022-09-09T09:31:04;18.21;80.52
47861;HTU21D;33620;52.340;5.984;2022-09-09T09:33:47;18.27;80.69
47861;HTU21D;33620;52.340;5.984;2022-09-09T09:36:13;18.29;79.98
47861;HTU21D;33620;52.340;5.984;2022-09-09T09:38:56;18.30;79.98
47861;HTU21D;33620;52.340;5.984;2022-09-09T09:41:40;18.35;80.06
47861;HTU21D;33620;52.340;5.984;2022-09-09T09:46:49;18.38;79.81
47861;HTU21D;33620;52.340;5.984;2022-09-09T09:49:15;18.38;80.05
47861;HTU21D;33620;52.340;5.984;2022-09-09T09:51:41;18.34;80.32
47861;HTU21D;33620;52.340;5.984;2022-09-09T09:56:38;18.30;79.50
47861;HTU21D;33620;52.340;5.984;2022-09-09T09:59:04;18.29;79.71
47861;HTU21D;33620;52.340;5.984;2022-09-09T10:01:32;18.29;79.77
47861;HTU21D;33620;52.340;5.984;2022-09-09T10:04:18;18.29;79.92
47861;HTU21D;33620;52.340;5.984;2022-09-09T10:06:48;18.27;79.64
47861;HTU21D;33620;52.340;5.984;2022-09-09T10:09:28;18.28;79.71
47861;HTU21D;33620;52.340;5.984;2022-09-09T10:17:40;18.40;79.64
47861;HTU21D;33620;52.340;5.984;2022-09-09T10:24:00;18.44;79.30
47861;HTU21D;33620;52.340;5.984;2022-09-09T10:26:40;18.47;78.56
47861;HTU21D;33620;52.340;5.984;2022-09-09T10:29:12;18.51;79.03
47861;HTU21D;33620;52.340;5.984;2022-09-09T10:32:01;18.56;78.65
47861;HTU21D;33620;52.340;5.984;2022-09-09T10:40:28;18.89;78.18
47861;HTU21D;33620;52.340;5.984;2022-09-09T10:56:22;19.27;75.57
47861;HTU21D;33620;52.340;5.984;2022-09-09T10:58:53;19.26;75.80
47861;HTU21D;33620;52.340;5.984;2022-09-09T11:01:37;19.21;75.57
47861;HTU21D;33620;52.340;5.984;2022-09-09T11:04:25;19.16;75.60
47861;HTU21D;33620;52.340;5.984;2022-09-09T11:06:55;19.11;75.23
47861;HTU21D;33620;52.340;5.984;2022-09-09T11:09:30;19.07;75.79
47861;HTU21D;33620;52.340;5.984;2022-09-09T11:11:58;19.05;76.54
47861;HTU21D;33620;52.340;5.984;2022-09-09T11:14:38;18.98;75.92
47861;HTU21D;33620;52.340;5.984;2022-09-09T11:17:13;18.94;76.04
47861;HTU21D;33620;52.340;5.984;2022-09-09T11:19:42;18.92;76.09
47861;HTU21D;33620;52.340;5.984;2022-09-09T11:24:48;18.95;76.43
47861;HTU21D;33620;52.340;5.984;2022-09-09T11:40:46;19.11;75.38
47861;HTU21D;33620;52.340;5.984;2022-09-09T11:43:20;19.10;75.70
47861;HTU21D;33620;52.340;5.984;2022-09-09T11:45:52;19.06;75.25
47861;HTU21D;33620;52.340;5.984;2022-09-09T11:48:35;19.03;76.31
47861;HTU21D;33620;52.340;5.984;2022-09-09T11:51:07;18.98;77.34
47861;HTU21D;33620;52.340;5.984;2022-09-09T11:53:35;18.92;78.45
47861;HTU21D;33620;52.340;5.984;2022-09-09T11:56:06;18.94;79.53
47861;HTU21D;33620;52.340;5.984;2022-09-09T11:59:23;18.97;79.61
47861;HTU21D;33620;52.340;5.984;2022-09-09T12:09:40;18.87;80.75
47861;HTU21D;33620;52.340;5.984;2022-09-09T12:19:41;18.95;82.88
47861;HTU21D;33620;52.340;5.984;2022-09-09T12:22:20;19.15;83.62
47861;HTU21D;33620;52.340;5.984;2022-09-09T12:33:12;19.58;82.94
47861;HTU21D;33620;52.340;5.984;2022-09-09T12:35:42;19.54;81.78
47861;HTU21D;33620;52.340;5.984;2022-09-09T12:38:15;19.45;82.21
47861;HTU21D;33620;52.340;5.984;2022-09-09T12:40:54;19.41;81.53
47861;HTU21D;33620;52.340;5.984;2022-09-09T12:43:21;19.39;81.56
47861;HTU21D;33620;52.340;5.984;2022-09-09T12:45:48;19.32;81.72
47861;HTU21D;33620;52.340;5.984;2022-09-09T12:48:18;19.29;81.39
47861;HTU21D;33620;52.340;5.984;2022-09-09T12:50:49;19.25;81.10
47861;HTU21D;33620;52.340;5.984;2022-09-09T12:53:24;19.25;80.59
47861;HTU21D;33620;52.340;5.984;2022-09-09T12:56:06;19.37;81.95
47861;HTU21D;33620;52.340;5.984;2022-09-09T12:58:36;19.37;81.06
47861;HTU21D;33620;52.340;5.984;2022-09-09T13:01:03;19.32;79.59
47861;HTU21D;33620;52.340;5.984;2022-09-09T13:03:31;19.47;80.06
47861;HTU21D;33620;52.340;5.984;2022-09-09T13:06:13;19.48;80.62
47861;HTU21D;33620;52.340;5.984;2022-09-09T13:08:43;19.50;80.06
47861;HTU21D;33620;52.340;5.984;2022-09-09T13:11:34;19.51;79.58
47861;HTU21D;33620;52.340;5.984;2022-09-09T13:14:01;19.52;79.85
47861;HTU21D;33620;52.340;5.984;2022-09-09T13:16:35;19.65;79.10
47861;HTU21D;33620;52.340;5.984;2022-09-09T13:19:06;19.70;77.98
47861;HTU21D;33620;52.340;5.984;2022-09-09T13:21:37;19.77;77.77
47861;HTU21D;33620;52.340;5.984;2022-09-09T13:24:04;19.79;77.40
47861;HTU21D;33620;52.340;5.984;2022-09-09T13:26:33;19.81;78.88
47861;HTU21D;33620;52.340;5.984;2022-09-09T13:29:16;19.82;77.57
47861;HTU21D;33620;52.340;5.984;2022-09-09T13:31:45;19.79;77.21
47861;HTU21D;33620;52.340;5.984;2022-09-09T13:34:27;19.80;77.11
47861;HTU21D;33620;52.340;5.984;2022-09-09T13:37:02;19.81;76.48
47861;HTU21D;33620;52.340;5.984;2022-09-09T13:39:28;19.79;76.50
47861;HTU21D;33620;52.340;5.984;2022-09-09T13:41:54;19.80;77.46
47861;HTU21D;33620;52.340;5.984;2022-09-09T13:44:34;19.82;76.97
47861;HTU21D;33620;52.340;5.984;2022-09-09T13:49:41;19.84;76.02
47861;HTU21D;33620;52.340;5.984;2022-09-09T13:52:12;19.86;75.77
47861;HTU21D;33620;52.340;5.984;2022-09-09T13:54:39;19.92;75.73
47861;HTU21D;33620;52.340;5.984;2022-09-09T13:57:05;20.05;75.63
47861;HTU21D;33620;52.340;5.984;2022-09-09T13:59:31;20.13;76.20
47861;HTU21D;33620;52.340;5.984;2022-09-09T14:01:57;20.21;75.48
47861;HTU21D;33620;52.340;5.984;2022-09-09T14:04:22;20.18;73.44
47861;HTU21D;33620;52.340;5.984;2022-09-09T14:06:49;20.28;72.93
47861;HTU21D;33620;52.340;5.984;2022-09-09T14:09:16;20.21;73.35
47861;HTU21D;33620;52.340;5.984;2022-09-09T14:11:44;20.19;73.95
47861;HTU21D;33620;52.340;5.984;2022-09-09T14:14:10;20.24;74.76
47861;HTU21D;33620;52.340;5.984;2022-09-09T14:16:36;20.25;74.01
47861;HTU21D;33620;52.340;5.984;2022-09-09T14:19:03;20.28;74.38
47861;HTU21D;33620;52.340;5.984;2022-09-09T14:21:28;20.30;73.54
47861;HTU21D;33620;52.340;5.984;2022-09-09T14:23:54;20.27;73.66
47861;HTU21D;33620;52.340;5.984;2022-09-09T14:26:21;20.19;73.86
47861;HTU21D;33620;52.340;5.984;2022-09-09T14:28:47;20.10;73.80
47861;HTU21D;33620;52.340;5.984;2022-09-09T14:31:13;20.04;73.99
47861;HTU21D;33620;52.340;5.984;2022-09-09T14:33:39;20.02;74.67
47861;HTU21D;33620;52.340;5.984;2022-09-09T14:36:05;20.01;75.45
47861;HTU21D;33620;52.340;5.984;2022-09-09T14:38:35;20.01;75.10
47861;HTU21D;33620;52.340;5.984;2022-09-09T14:41:14;20.04;75.72
47861;HTU21D;33620;52.340;5.984;2022-09-09T14:43:41;20.11;74.93
47861;HTU21D;33620;52.340;5.984;2022-09-09T14:46:08;20.19;74.41
47861;HTU21D;33620;52.340;5.984;2022-09-09T14:48:34;20.28;74.17
47861;HTU21D;33620;52.340;5.984;2022-09-09T14:53:33;20.40;73.57
47861;HTU21D;33620;52.340;5.984;2022-09-09T14:56:15;20.34;72.22
47861;HTU21D;33620;52.340;5.984;2022-09-09T14:58:41;20.35;73.03
47861;HTU21D;33620;52.340;5.984;2022-09-09T15:01:15;20.28;73.09
47861;HTU21D;33620;52.340;5.984;2022-09-09T15:03:41;20.19;71.87
47861;HTU21D;33620;52.340;5.984;2022-09-09T15:06:12;20.15;72.54
47861;HTU21D;33620;52.340;5.984;2022-09-09T15:08:40;20.16;73.67
47861;HTU21D;33620;52.340;5.984;2022-09-09T15:11:06;20.14;74.31
47861;HTU21D;33620;52.340;5.984;2022-09-09T15:13:35;20.14;74.49
47861;HTU21D;33620;52.340;5.984;2022-09-09T15:18:31;20.09;74.60
47861;HTU21D;33620;52.340;5.984;2022-09-09T15:20:57;20.07;74.68
47861;HTU21D;33620;52.340;5.984;2022-09-09T15:23:23;20.05;74.92
47861;HTU21D;33620;52.340;5.984;2022-09-09T15:25:55;20.03;74.95
47861;HTU21D;33620;52.340;5.984;2022-09-09T15:28:22;20.01;75.19
47861;HTU21D;33620;52.340;5.984;2022-09-09T15:30:49;19.99;75.70
47861;HTU21D;33620;52.340;5.984;2022-09-09T15:33:14;19.96;76.02
47861;HTU21D;33620;52.340;5.984;2022-09-09T15:35:40;19.95;76.04
47861;HTU21D;33620;52.340;5.984;2022-09-09T15:38:05;19.90;76.37
47861;HTU21D;33620;52.340;5.984;2022-09-09T15:40:31;19.87;76.09
47861;HTU21D;33620;52.340;5.984;2022-09-09T15:42:59;19.85;76.21
47861;HTU21D;33620;52.340;5.984;2022-09-09T15:45:25;19.84;75.93
47861;HTU21D;33620;52.340;5.984;2022-09-09T15:47:52;19.82;75.81
47861;HTU21D;33620;52.340;5.984;2022-09-09T15:50:17;19.77;76.05
47861;HTU21D;33620;52.340;5.984;2022-09-09T15:52:42;19.76;75.83
47861;HTU21D;33620;52.340;5.984;2022-09-09T15:55:08;19.75;76.08
47861;HTU21D;33620;52.340;5.984;2022-09-09T15:57:34;19.74;76.60
47861;HTU21D;33620;52.340;5.984;2022-09-09T16:00:00;19.72;75.90
47861;HTU21D;33620;52.340;5.984;2022-09-09T16:02:25;19.70;76.25
47861;HTU21D;33620;52.340;5.984;2022-09-09T16:04:51;19.69;76.64
47861;HTU21D;33620;52.340;5.984;2022-09-09T16:07:16;19.65;76.19
47861;HTU21D;33620;52.340;5.984;2022-09-09T16:09:42;19.63;76.89
47861;HTU21D;33620;52.340;5.984;2022-09-09T16:12:09;19.63;77.29
47861;HTU21D;33620;52.340;5.984;2022-09-09T16:14:38;19.62;77.27
47861;HTU21D;33620;52.340;5.984;2022-09-09T16:17:05;19.61;77.65
47861;HTU21D;33620;52.340;5.984;2022-09-09T16:19:32;19.58;78.43
47861;HTU21D;33620;52.340;5.984;2022-09-09T16:22:00;19.54;79.65
47861;HTU21D;33620;52.340;5.984;2022-09-09T16:24:25;19.51;79.62
47861;HTU21D;33620;52.340;5.984;2022-09-09T16:26:53;19.46;80.01
47861;HTU21D;33620;52.340;5.984;2022-09-09T16:29:20;19.42;80.30
47861;HTU21D;33620;52.340;5.984;2022-09-09T16:31:47;19.39;80.90
47861;HTU21D;33620;52.340;5.984;2022-09-09T16:34:14;19.31;81.04
47861;HTU21D;33620;52.340;5.984;2022-09-09T16:36:41;19.30;81.29
47861;HTU21D;33620;52.340;5.984;2022-09-09T16:39:15;19.25;81.84
47861;HTU21D;33620;52.340;5.984;2022-09-09T16:41:42;19.18;82.18
47861;HTU21D;33620;52.340;5.984;2022-09-09T16:44:10;19.15;81.78
47861;HTU21D;33620;52.340;5.984;2022-09-09T16:46:38;19.14;81.80
47861;HTU21D;33620;52.340;5.984;2022-09-09T16:49:06;19.16;81.65
47861;HTU21D;33620;52.340;5.984;2022-09-09T16:51:40;19.20;81.68
47861;HTU21D;33620;52.340;5.984;2022-09-09T16:54:07;19.23;81.42
47861;HTU21D;33620;52.340;5.984;2022-09-09T16:56:35;19.25;81.69
47861;HTU21D;33620;52.340;5.984;2022-09-09T16:59:04;19.26;81.13
47861;HTU21D;33620;52.340;5.984;2022-09-09T17:01:32;19.28;81.03
47861;HTU21D;33620;52.340;5.984;2022-09-09T17:04:02;19.32;80.77
47861;HTU21D;33620;52.340;5.984;2022-09-09T17:06:32;19.35;80.83
47861;HTU21D;33620;52.340;5.984;2022-09-09T17:09:01;19.36;80.75
47861;HTU21D;33620;52.340;5.984;2022-09-09T17:11:28;19.36;80.69
47861;HTU21D;33620;52.340;5.984;2022-09-09T17:13:54;19.33;80.24
47861;HTU21D;33620;52.340;5.984;2022-09-09T17:16:22;19.33;80.48
47861;HTU21D;33620;52.340;5.984;2022-09-09T17:18:49;19.33;80.49
47861;HTU21D;33620;52.340;5.984;2022-09-09T17:21:17;19.31;80.92
47861;HTU21D;33620;52.340;5.984;2022-09-09T17:23:44;19.31;80.98
47861;HTU21D;33620;52.340;5.984;2022-09-09T17:26:12;19.29;81.23
47861;HTU21D;33620;52.340;5.984;2022-09-09T17:28:38;19.27;80.92
47861;HTU21D;33620;52.340;5.984;2022-09-09T17:31:05;19.25;81.46
47861;HTU21D;33620;52.340;5.984;2022-09-09T17:33:36;19.22;81.65
47861;HTU21D;33620;52.340;5.984;2022-09-09T17:36:08;19.20;81.38
47861;HTU21D;33620;52.340;5.984;2022-09-09T17:38:34;19.16;81.43
47861;HTU21D;33620;52.340;5.984;2022-09-09T17:41:20;19.14;81.65
47861;HTU21D;33620;52.340;5.984;2022-09-09T17:43:47;19.09;81.57
47861;HTU21D;33620;52.340;5.984;2022-09-09T17:46:21;19.07;81.84